Time;durP1;ratioP1;P1;durP2;ratioP2;P2;SDS_P1;SDS_P2;PMS_P1;PMS_P2;Temp;Humidity;BMP_temperature;BMP_pressure;BME280_temperature;BME280_humidity;BME280_pressure;Samples;Min_cycle;Max_cycle;Signal;HPM_P1;HPM_P2
2021/06/12 00:00:10;;;;;;;;;;;;;;;-144.31;68.43;74611.00;5017963;28;20383;-79
2021/06/12 00:02:36;;;;;;;;;;;;;;;-144.31;68.45;74595.03;5008567;28;19917;-79
2021/06/12 00:05:04;;;;;;;;;;;;;;;-144.31;68.48;74587.06;5015528;28;19936;-79
2021/06/12 00:07:29;;;;;;;;;;;;;;;-144.31;68.50;74589.06;5009447;28;19923;-79
2021/06/12 00:09:55;;;;;;;;;;;;;;;-144.31;68.55;74589.06;5013290;28;19917;-79
2021/06/12 00:12:20;;;;;;;;;;;;;;;-144.31;68.61;74593.03;5005446;28;19913;-79
2021/06/12 00:14:45;;;;;;;;;;;;;;;-144.31;68.66;74601.03;5013210;28;19917;-79
2021/06/12 00:17:11;;;;;;;;;;;;;;;-144.31;68.71;74601.03;4997025;28;19913;-79
2021/06/12 00:19:36;;;;;;;;;;;;;;;-144.31;68.76;74609.00;5012354;28;19964;-79
2021/06/12 00:22:02;;;;;;;;;;;;;;;-144.31;68.79;74621.00;4992381;28;19917;-78
2021/06/12 00:24:27;;;;;;;;;;;;;;;-144.31;68.83;74630.97;4992605;28;19917;-78
2021/06/12 00:26:52;;;;;;;;;;;;;;;-144.31;68.85;74636.97;5024821;28;20375;-78
2021/06/12 00:29:18;;;;;;;;;;;;;;;-144.31;68.87;74646.97;4995568;28;19925;-78
2021/06/12 00:31:43;;;;;;;;;;;;;;;-144.31;68.88;74662.94;5011942;28;19917;-78
2021/06/12 00:34:11;;;;;;;;;;;;;;;-144.31;68.89;74664.94;5012924;28;20311;-78
2021/06/12 00:36:36;;;;;;;;;;;;;;;-144.31;68.88;74676.91;5012212;28;19917;-78
2021/06/12 00:39:02;;;;;;;;;;;;;;;-144.31;68.85;74674.91;5013052;28;19966;-78
2021/06/12 00:41:31;;;;;;;;;;;;;;;-144.31;68.82;74678.91;5013135;28;19985;-79
2021/06/12 00:43:58;;;;;;;;;;;;;;;-144.31;68.79;74686.91;4995833;28;19944;-79
2021/06/12 00:46:24;;;;;;;;;;;;;;;-144.31;68.76;74694.88;5011199;28;19909;-78
2021/06/12 00:48:51;;;;;;;;;;;;;;;-144.31;68.73;74700.88;5010694;28;20021;-79
2021/06/12 00:51:17;;;;;;;;;;;;;;;-144.31;68.71;74714.84;5013676;28;20017;-79
2021/06/12 00:53:43;;;;;;;;;;;;;;;-144.31;68.66;74706.88;5015472;28;20784;-79
2021/06/12 00:56:15;;;;;;;;;;;;;;;-144.31;68.62;74706.88;5014416;28;19921;-79
2021/06/12 00:58:44;;;;;;;;;;;;;;;-144.31;68.57;74706.88;5018445;28;19985;-80
2021/06/12 01:01:14;;;;;;;;;;;;;;;-144.31;68.54;74718.84;5014521;28;19921;-80
2021/06/12 01:03:40;;;;;;;;;;;;;;;-144.31;68.51;74732.81;5009128;28;19986;-80
2021/06/12 01:06:12;;;;;;;;;;;;;;;-144.31;68.48;74744.81;4998145;28;19959;-79
2021/06/12 01:08:38;;;;;;;;;;;;;;;-144.31;68.46;74748.81;5019772;28;19997;-79
2021/06/12 01:11:04;;;;;;;;;;;;;;;-144.31;68.41;74750.78;5029011;28;19928;-79
2021/06/12 01:13:32;;;;;;;;;;;;;;;-144.31;68.40;74752.78;5002046;28;19917;-79
2021/06/12 01:16:01;;;;;;;;;;;;;;;-144.31;68.38;74758.78;5009213;28;20337;-79
2021/06/12 01:18:31;;;;;;;;;;;;;;;-144.31;68.33;74760.78;5004977;28;19921;-79
2021/06/12 01:21:09;;;;;;;;;;;;;;;-144.31;68.30;74770.75;5005763;28;19913;-79
2021/06/12 01:23:53;;;;;;;;;;;;;;;-144.31;68.28;74778.75;5006827;28;20121;-79
2021/06/12 01:26:21;;;;;;;;;;;;;;;-144.31;68.25;74780.75;5005077;28;19932;-79
2021/06/12 01:29:05;;;;;;;;;;;;;;;-144.31;68.22;74778.75;5009148;28;19913;-78
2021/06/12 01:31:31;;;;;;;;;;;;;;;-144.31;68.19;74774.75;4987612;28;20353;-78
2021/06/12 01:33:58;;;;;;;;;;;;;;;-144.31;68.16;74778.75;5008988;28;19920;-79
2021/06/12 01:36:25;;;;;;;;;;;;;;;-144.31;68.13;74772.75;5009077;28;19975;-79
2021/06/12 01:38:52;;;;;;;;;;;;;;;-144.31;68.10;74774.75;5010616;28;20387;-79
2021/06/12 01:41:20;;;;;;;;;;;;;;;-144.31;68.08;74786.75;5009796;28;19971;-79
2021/06/12 01:43:46;;;;;;;;;;;;;;;-144.31;68.07;74790.72;4992692;28;20375;-79
2021/06/12 01:46:12;;;;;;;;;;;;;;;-144.31;68.05;74790.72;5021778;28;19927;-79
2021/06/12 01:48:43;;;;;;;;;;;;;;;-144.31;68.03;74796.72;5023230;28;20004;-78
2021/06/12 01:51:09;;;;;;;;;;;;;;;-144.31;68.02;74802.72;4995966;28;19918;-79
2021/06/12 01:53:35;;;;;;;;;;;;;;;-144.31;68.00;74788.75;5010340;28;19924;-79
2021/06/12 01:56:02;;;;;;;;;;;;;;;-144.31;68.00;74788.75;5003368;28;20358;-79
2021/06/12 01:58:28;;;;;;;;;;;;;;;-144.31;67.99;74798.72;5004365;28;20425;-79
2021/06/12 02:00:54;;;;;;;;;;;;;;;-144.31;67.98;74798.72;5009468;28;19917;-79
2021/06/12 02:03:20;;;;;;;;;;;;;;;-144.31;67.98;74800.72;4993267;28;20434;-79
2021/06/12 02:05:46;;;;;;;;;;;;;;;-144.31;67.98;74804.72;5010020;28;19918;-79
2021/06/12 02:08:14;;;;;;;;;;;;;;;-144.31;67.97;74812.69;5009464;28;20045;-79
2021/06/12 02:10:40;;;;;;;;;;;;;;;-144.31;67.97;74814.69;5007370;28;19922;-79
2021/06/12 02:13:08;;;;;;;;;;;;;;;-144.31;67.96;74814.69;5003634;28;20362;-79
2021/06/12 02:15:35;;;;;;;;;;;;;;;-144.31;67.96;74828.69;5007592;28;20382;-79
2021/06/12 02:18:05;;;;;;;;;;;;;;;-144.31;67.95;74824.69;5010709;28;19956;-80
2021/06/12 02:20:33;;;;;;;;;;;;;;;-144.31;67.96;74840.66;5007209;28;19917;-79
2021/06/12 02:22:58;;;;;;;;;;;;;;;-144.31;67.96;74834.66;5023138;28;20423;-79
2021/06/12 02:25:26;;;;;;;;;;;;;;;-144.31;67.95;74838.66;5010624;28;20052;-79
2021/06/12 02:27:53;;;;;;;;;;;;;;;-144.31;67.95;74844.66;5011324;28;19914;-80
2021/06/12 02:30:21;;;;;;;;;;;;;;;-144.31;67.95;74848.66;5012925;28;19948;-80
2021/06/12 02:32:48;;;;;;;;;;;;;;;-144.31;67.94;74832.66;5006427;28;20657;-80
2021/06/12 02:35:14;;;;;;;;;;;;;;;-144.31;67.95;74846.66;4997085;28;19969;-80
2021/06/12 02:37:40;;;;;;;;;;;;;;;-144.31;67.94;74830.66;5005354;28;19967;-80
2021/06/12 02:40:06;;;;;;;;;;;;;;;-144.31;67.94;74836.66;5013919;28;19967;-80
2021/06/12 02:42:32;;;;;;;;;;;;;;;-144.31;67.94;74844.66;5013545;28;19913;-80
2021/06/12 02:44:57;;;;;;;;;;;;;;;-144.31;67.94;74848.66;5005103;28;20011;-80
2021/06/12 02:47:24;;;;;;;;;;;;;;;-144.31;67.94;74836.66;5007068;28;19968;-80
2021/06/12 02:49:50;;;;;;;;;;;;;;;-144.31;67.95;74826.69;5013771;28;19924;-79
2021/06/12 02:52:21;;;;;;;;;;;;;;;-144.31;67.95;74842.66;5012820;28;19964;-79
2021/06/12 02:54:47;;;;;;;;;;;;;;;-144.31;67.95;74846.66;5011534;28;19928;-79
2021/06/12 02:57:13;;;;;;;;;;;;;;;-144.31;67.97;74852.63;5012764;28;19967;-79
2021/06/12 02:59:43;;;;;;;;;;;;;;;-144.31;67.97;74860.63;5013389;28;19924;-80
2021/06/12 03:02:10;;;;;;;;;;;;;;;-144.31;67.97;74862.63;5028210;28;20025;-80
2021/06/12 03:04:36;;;;;;;;;;;;;;;-144.31;67.99;74874.59;5010251;28;19924;-79
2021/06/12 03:07:04;;;;;;;;;;;;;;;-144.31;68.00;74882.59;5011842;28;19924;-79
2021/06/12 03:09:29;;;;;;;;;;;;;;;-144.31;68.00;74878.59;5002092;28;19940;-79
2021/06/12 03:11:55;;;;;;;;;;;;;;;-144.31;68.00;74886.59;5007925;28;20481;-79
2021/06/12 03:14:25;;;;;;;;;;;;;;;-144.31;68.01;74884.59;5013277;28;19913;-79
2021/06/12 03:16:51;;;;;;;;;;;;;;;-144.31;68.02;74878.59;5013636;28;19924;-79
2021/06/12 03:19:16;;;;;;;;;;;;;;;-144.31;68.02;74870.63;5013782;28;19917;-79
2021/06/12 03:21:43;;;;;;;;;;;;;;;-144.31;68.02;74878.59;5022132;28;19924;-79
2021/06/12 03:24:09;;;;;;;;;;;;;;;-144.31;68.03;74886.59;5006380;28;20043;-79
2021/06/12 03:26:40;;;;;;;;;;;;;;;-144.31;68.05;74892.56;5014047;28;19917;-80
2021/06/12 03:29:06;;;;;;;;;;;;;;;-144.31;68.05;74894.56;5018466;28;19917;-79
2021/06/12 03:31:31;;;;;;;;;;;;;;;-144.31;68.06;74894.56;5006800;28;19917;-79
2021/06/12 03:33:59;;;;;;;;;;;;;;;-144.31;68.07;74894.56;4998587;28;20437;-79
2021/06/12 03:36:26;;;;;;;;;;;;;;;-144.31;68.07;74890.59;4992651;28;19939;-79
2021/06/12 03:38:51;;;;;;;;;;;;;;;-144.31;68.06;74890.59;5015149;28;20008;-80
2021/06/12 03:41:17;;;;;;;;;;;;;;;-144.31;68.06;74882.59;5011172;28;20007;-79
2021/06/12 03:43:43;;;;;;;;;;;;;;;-144.31;68.06;74866.63;4992104;28;19965;-79
2021/06/12 03:46:12;;;;;;;;;;;;;;;-144.31;68.04;74834.66;5011567;28;20364;-79
2021/06/12 03:48:38;;;;;;;;;;;;;;;-144.31;68.05;74848.66;5013265;28;19917;-79
2021/06/12 03:51:04;;;;;;;;;;;;;;;-144.31;68.07;74846.66;4997154;28;19909;-79
2021/06/12 03:53:43;;;;;;;;;;;;;;;-144.31;68.07;74848.66;5018030;28;20007;-80
2021/06/12 03:56:09;;;;;;;;;;;;;;;-144.31;68.08;74842.66;4997485;28;19968;-80
2021/06/12 03:58:34;;;;;;;;;;;;;;;-144.31;68.09;74844.66;5025509;28;20389;-80
2021/06/12 04:00:59;;;;;;;;;;;;;;;-144.31;68.08;74830.66;5016871;28;19913;-80
2021/06/12 04:03:25;;;;;;;;;;;;;;;-144.31;68.09;74830.66;5024229;28;19923;-80
2021/06/12 04:05:50;;;;;;;;;;;;;;;-144.31;68.08;74818.69;5000224;28;19917;-80
2021/06/12 04:08:15;;;;;;;;;;;;;;;-144.31;68.08;74806.72;4999807;28;19913;-80
2021/06/12 04:10:41;;;;;;;;;;;;;;;-144.31;68.08;74798.72;4999332;28;19917;-80
2021/06/12 04:13:06;;;;;;;;;;;;;;;-144.31;68.07;74782.75;4999285;28;20433;-80
2021/06/12 04:15:32;;;;;;;;;;;;;;;-144.31;68.05;74770.75;5015803;28;19981;-80
2021/06/12 04:18:07;;;;;;;;;;;;;;;-144.31;68.04;74750.78;4997796;28;20314;-78
2021/06/12 04:20:36;;;;;;;;;;;;;;;-144.31;68.03;74734.81;5012817;28;19924;-80
2021/06/12 04:23:02;;;;;;;;;;;;;;;-144.31;68.02;74726.84;5028737;28;19914;-80
2021/06/12 04:25:27;;;;;;;;;;;;;;;-144.31;68.02;74720.84;5013821;28;19935;-80
2021/06/12 04:27:52;;;;;;;;;;;;;;;-144.31;68.02;74714.84;5012530;28;19921;-78
2021/06/12 04:30:20;;;;;;;;;;;;;;;-144.31;68.00;74700.88;5013603;28;19960;-79
2021/06/12 04:32:45;;;;;;;;;;;;;;;-144.31;67.99;74680.91;4998400;28;20387;-79
2021/06/12 04:35:14;;;;;;;;;;;;;;;-144.31;67.99;74670.91;5014334;28;20044;-79
2021/06/12 04:37:40;;;;;;;;;;;;;;;-144.31;67.97;74662.94;4994973;28;19922;-79
2021/06/12 04:40:06;;;;;;;;;;;;;;;-144.31;67.96;74654.94;4998923;28;19925;-79
2021/06/12 04:42:31;;;;;;;;;;;;;;;-144.31;67.96;74644.97;4999868;28;19917;-79
2021/06/12 04:44:56;;;;;;;;;;;;;;;-144.31;67.95;74630.97;5013677;28;19917;-79
2021/06/12 04:47:22;;;;;;;;;;;;;;;-144.31;67.94;74623.00;5015560;28;20008;-79
2021/06/12 04:49:47;;;;;;;;;;;;;;;-144.31;67.94;74617.00;4997072;28;19928;-79
2021/06/12 04:52:15;;;;;;;;;;;;;;;-144.31;67.93;74613.00;5013693;28;20304;-79
2021/06/12 04:54:43;;;;;;;;;;;;;;;-144.31;67.92;74589.06;5005620;28;19924;-79
2021/06/12 04:57:08;;;;;;;;;;;;;;;-144.31;67.93;74579.06;5000256;28;19954;-79
2021/06/12 04:59:36;;;;;;;;;;;;;;;-144.31;67.93;74569.09;5012918;28;19917;-80
2021/06/12 05:02:01;;;;;;;;;;;;;;;-144.31;67.93;74553.09;5029084;28;19924;-80
2021/06/12 05:04:27;;;;;;;;;;;;;;;-144.31;67.93;74543.13;4999332;28;19913;-80
2021/06/12 05:06:52;;;;;;;;;;;;;;;-144.31;67.94;74531.13;4997319;28;20004;-79
2021/06/12 05:09:18;;;;;;;;;;;;;;;-144.31;67.95;74517.16;5014962;28;19921;-79
2021/06/12 05:11:43;;;;;;;;;;;;;;;-144.31;67.98;74497.19;5004513;28;19984;-80
2021/06/12 05:14:08;;;;;;;;;;;;;;;-144.31;68.00;74483.22;4995394;28;19914;-79
2021/06/12 05:16:35;;;;;;;;;;;;;;;-144.31;68.03;74471.25;5008912;28;20004;-79
2021/06/12 05:19:00;;;;;;;;;;;;;;;-144.31;68.07;74459.25;5013718;28;19917;-79
2021/06/12 05:21:26;;;;;;;;;;;;;;;-144.31;68.10;74449.28;5008680;28;20377;-78
2021/06/12 05:23:52;;;;;;;;;;;;;;;-144.31;68.15;74425.31;4993319;28;19917;-79
2021/06/12 05:26:19;;;;;;;;;;;;;;;-144.31;68.21;74399.34;5010077;28;19920;-79
2021/06/12 05:28:44;;;;;;;;;;;;;;;-144.31;68.33;74405.34;5008936;28;20795;-78
2021/06/12 05:31:09;;;;;;;;;;;;;;;-144.31;68.38;74363.41;5007122;28;20469;-78
2021/06/12 05:33:35;;;;;;;;;;;;;;;-144.31;68.49;74325.47;5007825;28;20017;-79
2021/06/12 05:36:01;;;;;;;;;;;;;;;-144.31;68.64;74295.53;4991370;28;20371;-78
2021/06/12 05:38:26;;;;;;;;;;;;;;;-144.31;68.88;74285.53;4997862;28;19913;-79
2021/06/12 05:40:52;;;;;;;;;;;;;;;-144.31;69.12;74255.59;4992562;28;19917;-79
2021/06/12 05:43:17;;;;;;;;;;;;;;;-144.31;69.38;74215.66;5008330;28;19917;-79
2021/06/12 05:45:44;;;;;;;;;;;;;;;-144.31;69.82;74183.72;5012588;28;19921;-79
2021/06/12 05:48:09;;;;;;;;;;;;;;;-144.31;70.28;74161.75;5012449;28;19917;-79
2021/06/12 05:50:35;;;;;;;;;;;;;;;-144.31;70.86;74133.78;5001622;28;19928;-79
2021/06/12 05:53:00;;;;;;;;;;;;;;;-144.31;71.50;74121.81;5009698;28;19959;-79
2021/06/12 05:55:26;;;;;;;;;;;;;;;-144.31;72.17;74123.81;5011155;28;19913;-79
2021/06/12 05:57:51;;;;;;;;;;;;;;;-144.31;72.62;74123.81;5011237;28;19981;-79
2021/06/12 06:00:17;;;;;;;;;;;;;;;-144.31;73.05;74091.88;4996940;28;19924;-79
2021/06/12 06:02:42;;;;;;;;;;;;;;;-144.31;73.38;74063.91;4997342;28;19909;-79
2021/06/12 06:05:08;;;;;;;;;;;;;;;-144.31;73.85;74081.88;5014432;28;19921;-79
2021/06/12 06:07:33;;;;;;;;;;;;;;;-144.31;73.79;74043.94;5012011;28;19917;-79
2021/06/12 06:09:58;;;;;;;;;;;;;;;-144.31;73.83;74024.00;4985329;28;20335;-79
2021/06/12 06:12:24;;;;;;;;;;;;;;;-144.31;74.64;74000.03;5026710;28;19917;-79
2021/06/12 06:14:49;;;;;;;;;;;;;;;-144.31;75.40;73974.06;5005113;28;19927;-79
2021/06/12 06:17:15;;;;;;;;;;;;;;;-144.31;76.22;73956.09;5008675;28;20397;-79
2021/06/12 06:19:40;;;;;;;;;;;;;;;-144.31;76.89;73948.13;5009366;28;19968;-79
2021/06/12 06:22:06;;;;;;;;;;;;;;;-144.31;77.14;73918.16;5010338;28;19916;-78
2021/06/12 06:24:31;;;;;;;;;;;;;;;-144.31;77.52;73922.16;5009138;28;19921;-79
2021/06/12 06:26:57;;;;;;;;;;;;;;;-144.31;77.88;73922.16;5023742;28;19913;-79
2021/06/12 06:29:22;;;;;;;;;;;;;;;-144.31;78.27;73930.16;5010719;28;19948;-79
2021/06/12 06:31:47;;;;;;;;;;;;;;;-144.31;78.12;73882.22;5009247;28;20291;-80
2021/06/12 06:34:13;;;;;;;;;;;;;;;-144.31;78.41;73842.31;5002986;28;19932;-79
2021/06/12 06:36:39;;;;;;;;;;;;;;;-144.31;79.11;73810.38;5019299;28;20004;-79
2021/06/12 06:39:04;;;;;;;;;;;;;;;-144.31;80.16;73772.44;5022792;28;19924;-79
2021/06/12 06:41:30;;;;;;;;;;;;;;;-144.31;82.32;73790.41;5007017;28;19921;-80
2021/06/12 06:43:55;;;;;;;;;;;;;;;-144.31;83.16;73752.47;5006603;28;19917;-80
2021/06/12 06:46:21;;;;;;;;;;;;;;;-144.31;84.57;73730.50;4991046;28;19944;-80
2021/06/12 06:48:46;;;;;;;;;;;;;;;-144.31;86.70;73748.47;5025103;28;19922;-80
2021/06/12 06:51:12;;;;;;;;;;;;;;;-144.31;87.19;73664.63;5011340;28;20386;-79
2021/06/12 06:53:37;;;;;;;;;;;;;;;-144.31;89.26;73640.66;5009218;28;19917;-79
2021/06/12 06:56:04;;;;;;;;;;;;;;;-144.31;93.08;73688.59;5009334;28;19964;-80
2021/06/12 06:58:30;;;;;;;;;;;;;;;-144.31;91.68;73602.75;5009842;28;20350;-80
2021/06/12 07:00:55;;;;;;;;;;;;;;;-144.31;96.64;73574.78;5023226;28;19917;-79
2021/06/12 07:03:21;;;;;;;;;;;;;;;-144.31;100.00;73620.69;4989213;28;19914;-80
2021/06/12 07:05:46;;;;;;;;;;;;;;;-144.31;96.24;73614.72;5005411;28;19917;-79
2021/06/12 07:08:12;;;;;;;;;;;;;;;-144.31;93.04;73576.78;4989783;28;20379;-80
2021/06/12 07:10:38;;;;;;;;;;;;;;;-144.31;98.01;73516.91;5008615;28;20471;-78
2021/06/12 07:13:04;;;;;;;;;;;;;;;-144.31;100.00;73480.97;5021430;28;20399;-77
2021/06/12 07:15:29;;;;;;;;;;;;;;;-144.31;100.00;73502.91;5005512;28;19921;-78
2021/06/12 07:17:55;;;;;;;;;;;;;;;-144.31;100.00;73512.91;5003629;28;20383;-76
2021/06/12 07:20:20;;;;;;;;;;;;;;;-144.31;100.00;73488.94;5007995;28;19996;-79
2021/06/12 07:22:46;;;;;;;;;;;;;;;-144.31;100.00;73520.88;5010631;28;19913;-80
2021/06/12 07:25:11;;;;;;;;;;;;;;;-144.31;100.00;73500.94;5008622;28;19917;-79
2021/06/12 07:27:37;;;;;;;;;;;;;;;-144.31;100.00;73538.84;5009213;28;19921;-80
2021/06/12 07:30:03;;;;;;;;;;;;;;;-144.31;100.00;73546.84;5007478;28;19922;-79
2021/06/12 07:32:29;;;;;;;;;;;;;;;-144.31;100.00;73520.88;5012200;28;19961;-80
2021/06/12 07:34:54;;;;;;;;;;;;;;;-144.31;100.00;73443.03;5008788;28;19924;-81
2021/06/12 07:37:20;;;;;;;;;;;;;;;-144.31;100.00;73437.03;5011335;28;19917;-79
2021/06/12 07:39:47;;;;;;;;;;;;;;;-144.31;100.00;73363.19;5010464;28;19913;-79
2021/06/12 07:42:13;;;;;;;;;;;;;;;-144.31;100.00;73353.19;5008349;28;20004;-80
2021/06/12 07:44:38;;;;;;;;;;;;;;;-144.31;100.00;73239.41;5009113;28;20044;-80
2021/06/12 07:47:04;;;;;;;;;;;;;;;-144.31;100.00;73237.44;4986607;28;20489;-80
2021/06/12 07:49:30;;;;;;;;;;;;;;;-144.31;100.00;73261.38;4991714;28;20433;-81
2021/06/12 07:51:55;;;;;;;;;;;;;;;-144.31;100.00;73263.38;5024956;28;19921;-80
2021/06/12 07:54:21;;;;;;;;;;;;;;;-144.31;100.00;73279.34;5011285;28;19924;-81
2021/06/12 07:56:46;;;;;;;;;;;;;;;-144.31;100.00;73337.22;4991920;28;19917;-80
2021/06/12 07:59:12;;;;;;;;;;;;;;;-144.31;100.00;73289.31;5004455;28;19979;-78
2021/06/12 08:01:37;;;;;;;;;;;;;;;-144.31;100.00;73331.25;5004921;28;19964;-79
2021/06/12 08:04:03;;;;;;;;;;;;;;;-144.31;100.00;73311.28;5029915;28;19917;-80
2021/06/12 08:06:29;;;;;;;;;;;;;;;-144.31;100.00;73309.28;5004831;28;19913;-77
2021/06/12 08:08:54;;;;;;;;;;;;;;;-144.31;100.00;73335.25;5006260;28;19917;-76
2021/06/12 08:11:20;;;;;;;;;;;;;;;-144.31;100.00;73277.34;5007377;28;20356;-75
2021/06/12 08:13:45;;;;;;;;;;;;;;;-144.31;100.00;73209.47;5020776;28;19917;-76
2021/06/12 08:16:11;;;;;;;;;;;;;;;-144.31;100.00;73259.38;5010227;28;19913;-76
2021/06/12 08:18:36;;;;;;;;;;;;;;;-144.31;100.00;73185.53;5010245;28;19916;-76
2021/06/12 08:21:04;;;;;;;;;;;;;;;-144.31;100.00;73277.34;5006490;28;19914;-76
2021/06/12 08:23:29;;;;;;;;;;;;;;;-144.31;100.00;73231.44;5008069;28;20240;-76
2021/06/12 08:25:55;;;;;;;;;;;;;;;-144.31;100.00;73257.38;5009741;28;19955;-76
2021/06/12 08:28:20;;;;;;;;;;;;;;;-144.31;100.00;73237.44;5017549;28;20367;-75
2021/06/12 08:30:46;;;;;;;;;;;;;;;-144.31;100.00;73253.41;5009165;28;19925;-75
2021/06/12 08:33:12;;;;;;;;;;;;;;;-144.31;97.83;73287.31;5009838;28;20398;-75
2021/06/12 08:35:40;;;;;;;;;;;;;;;-144.31;93.62;73205.47;5009682;28;19976;-75
2021/06/12 08:38:06;;;;;;;;;;;;;;;-144.31;94.63;73309.28;5008145;28;19921;-75
2021/06/12 08:40:32;;;;;;;;;;;;;;;-144.31;91.57;73215.47;5005897;28;19918;-76
2021/06/12 08:42:58;;;;;;;;;;;;;;;-144.31;90.26;73133.63;5002444;28;19953;-76
2021/06/12 08:45:28;;;;;;;;;;;;;;;-144.31;93.67;73143.59;5025198;28;19971;-75
2021/06/12 08:47:57;;;;;;;;;;;;;;;-144.31;94.12;73151.59;5008308;28;19929;-75
2021/06/12 08:50:23;;;;;;;;;;;;;;;-144.31;94.87;73173.56;5000359;28;19929;-76
2021/06/12 08:52:50;;;;;;;;;;;;;;;-144.31;93.93;73173.56;5007589;28;19917;-75
2021/06/12 08:55:15;;;;;;;;;;;;;;;-144.31;94.20;73133.63;5008402;28;19918;-75
2021/06/12 08:57:41;;;;;;;;;;;;;;;-144.31;100.00;73089.72;5003867;28;19917;-76
2021/06/12 09:00:07;;;;;;;;;;;;;;;-144.31;100.00;73145.59;4991247;28;19917;-75
2021/06/12 09:03:02;;;;;;;;;;;;;;;-144.31;100.00;73095.69;5010585;28;19943;-75
2021/06/12 09:05:36;;;;;;;;;;;;;;;-144.31;100.00;73083.72;4996316;28;20032;-76
2021/06/12 09:08:06;;;;;;;;;;;;;;;-144.31;100.00;73081.72;5018297;28;20264;-76
2021/06/12 09:10:31;;;;;;;;;;;;;;;-144.31;100.00;73081.72;5003239;28;19922;-76
2021/06/12 09:12:57;;;;;;;;;;;;;;;-144.31;100.00;73091.72;5007259;28;19917;-76
2021/06/12 09:15:22;;;;;;;;;;;;;;;-144.31;100.00;73101.69;5008381;28;19964;-76
2021/06/12 09:17:50;;;;;;;;;;;;;;;-144.31;100.00;73027.84;5009608;28;19913;-76
2021/06/12 09:20:28;;;;;;;;;;;;;;;-144.31;100.00;73061.75;5005779;28;19925;-76
2021/06/12 09:23:10;;;;;;;;;;;;;;;-144.31;100.00;73005.88;5002597;28;19917;-76
2021/06/12 09:25:40;;;;;;;;;;;;;;;-144.31;100.00;72999.88;5003001;28;20386;-76
2021/06/12 09:28:05;;;;;;;;;;;;;;;-144.31;100.00;73051.78;5018511;28;19917;-76
2021/06/12 09:30:31;;;;;;;;;;;;;;;-144.31;100.00;73101.69;4989231;28;19999;-77
2021/06/12 09:32:56;;;;;;;;;;;;;;;-144.31;100.00;72995.91;5008398;28;20363;-76
2021/06/12 09:35:29;;;;;;;;;;;;;;;-144.31;100.00;72957.97;5004363;28;19963;-76
2021/06/12 09:37:57;;;;;;;;;;;;;;;-144.31;100.00;72870.16;4990132;28;20007;-76
2021/06/12 09:40:25;;;;;;;;;;;;;;;-144.31;100.00;72971.94;5006153;28;19988;-77
2021/06/12 09:42:51;;;;;;;;;;;;;;;-144.31;100.00;72864.16;5007520;28;19976;-76
2021/06/12 09:45:26;;;;;;;;;;;;;;;-144.31;100.00;72840.22;5006305;28;19917;-76
2021/06/12 09:48:06;;;;;;;;;;;;;;;-144.31;100.00;72770.34;5007324;28;20487;-76
2021/06/12 09:50:31;;;;;;;;;;;;;;;-144.31;100.00;72922.03;5002097;28;19921;-76
2021/06/12 09:52:57;;;;;;;;;;;;;;;-144.31;100.00;72882.13;5020287;28;19932;-76
2021/06/12 09:55:27;;;;;;;;;;;;;;;-144.31;100.00;72824.25;5005072;28;19921;-80
2021/06/12 09:57:53;;;;;;;;;;;;;;;-144.31;100.00;72812.25;4990839;28;19917;-78
2021/06/12 10:00:33;;;;;;;;;;;;;;;-144.31;100.00;72878.13;5006493;28;19917;-78
2021/06/12 10:02:58;;;;;;;;;;;;;;;-144.31;100.00;72822.25;5002430;28;20403;-78
2021/06/12 10:05:27;;;;;;;;;;;;;;;-144.31;100.00;72842.22;4988649;28;19959;-78
2021/06/12 10:07:53;;;;;;;;;;;;;;;-144.31;100.00;72804.28;5002096;28;19972;-79
2021/06/12 10:10:19;;;;;;;;;;;;;;;-144.31;100.00;72858.16;4993722;28;20032;-80
2021/06/12 10:12:46;;;;;;;;;;;;;;;-144.31;100.00;72858.16;4991999;28;20306;-79
2021/06/12 10:15:12;;;;;;;;;;;;;;;-144.31;100.00;72842.22;4984812;28;19913;-79
2021/06/12 10:17:40;;;;;;;;;;;;;;;-144.31;100.00;72904.09;4976963;28;19917;-80
2021/06/12 10:20:07;;;;;;;;;;;;;;;-144.31;100.00;72828.22;4972265;28;19923;-79
2021/06/12 10:22:32;;;;;;;;;;;;;;;-144.31;100.00;72780.34;4987682;28;19947;-79
2021/06/12 10:24:58;;;;;;;;;;;;;;;-144.31;100.00;72854.19;5007237;28;19920;-79
2021/06/12 10:27:25;;;;;;;;;;;;;;;-144.31;100.00;72796.31;4990935;28;19987;-79
2021/06/12 10:29:50;;;;;;;;;;;;;;;-144.31;100.00;72736.41;4993708;28;20098;-79
2021/06/12 10:32:17;;;;;;;;;;;;;;;-144.31;100.00;72762.38;5008423;28;19957;-79
2021/06/12 10:34:43;;;;;;;;;;;;;;;-144.31;100.00;72702.50;5000595;28;19921;-79
2021/06/12 10:37:09;;;;;;;;;;;;;;;-144.31;100.00;72750.41;4987319;28;20479;-79
2021/06/12 10:39:36;;;;;;;;;;;;;;;-144.31;100.00;72820.25;4987836;28;19921;-79
2021/06/12 10:42:16;;;;;;;;;;;;;;;-144.31;100.00;72770.34;4987899;28;19913;-79
2021/06/12 10:44:43;;;;;;;;;;;;;;;-144.31;100.00;72856.19;4981971;28;20028;-79
2021/06/12 10:47:08;;;;;;;;;;;;;;;-144.31;100.00;72780.34;4981084;28;19976;-78
2021/06/12 10:49:34;;;;;;;;;;;;;;;-144.31;100.00;72786.31;4987243;28;19921;-79
2021/06/12 10:52:01;;;;;;;;;;;;;;;-144.31;100.00;72748.41;4988362;28;20160;-79
2021/06/12 10:54:36;;;;;;;;;;;;;;;-144.31;100.00;72730.44;4988426;28;20402;-79
2021/06/12 10:57:04;;;;;;;;;;;;;;;-144.31;100.00;72734.44;4976502;28;19960;-78
2021/06/12 10:59:32;;;;;;;;;;;;;;;-144.31;100.00;72890.09;4980136;28;19917;-78
2021/06/12 11:02:09;;;;;;;;;;;;;;;-144.31;100.00;72704.50;4987863;28;19918;-78
2021/06/12 11:04:42;;;;;;;;;;;;;;;-144.31;100.00;72712.47;4967199;28;19944;-79
2021/06/12 11:07:28;;;;;;;;;;;;;;;-144.31;100.00;72758.38;4979733;28;19924;-78
2021/06/12 11:09:54;;;;;;;;;;;;;;;-144.31;100.00;72762.38;4987399;28;19982;-78
2021/06/12 11:12:19;;;;;;;;;;;;;;;-144.31;100.00;72774.34;4984429;28;20398;-78
2021/06/12 11:14:58;;;;;;;;;;;;;;;-144.31;100.00;72738.41;4969728;28;20145;-78
2021/06/12 11:17:24;;;;;;;;;;;;;;;-144.31;100.00;72660.56;4975671;28;19956;-72
2021/06/12 11:19:58;;;;;;;;;;;;;;;-144.31;100.00;72654.59;4973996;28;20383;-71
2021/06/12 11:22:29;;;;;;;;;;;;;;;-144.31;100.00;72824.25;4984262;28;20003;-71
2021/06/12 11:25:07;;;;;;;;;;;;;;;-144.31;100.00;72826.25;4982527;28;20416;-72
2021/06/12 11:27:37;;;;;;;;;;;;;;;-144.31;100.00;72886.13;4980665;28;19921;-72
2021/06/12 11:30:08;;;;;;;;;;;;;;;-144.31;100.00;72800.28;4991811;28;19929;-72
2021/06/12 11:32:34;;;;;;;;;;;;;;;-144.31;100.00;72572.75;4997151;28;19995;-72
2021/06/12 11:34:59;;;;;;;;;;;;;;;-144.31;100.00;72496.91;4990385;28;20298;-73
2021/06/12 11:37:27;;;;;;;;;;;;;;;-144.31;100.00;72331.28;4990269;28;19979;-72
2021/06/12 11:39:56;;;;;;;;;;;;;;;-144.31;100.00;72265.41;4997126;23;19976;-72
2021/06/12 11:42:22;;;;;;;;;;;;;;;-144.31;100.00;72407.09;4939000;28;20432;-72
2021/06/12 11:44:48;;;;;;;;;;;;;;;-144.31;100.00;72459.00;4943018;28;19924;-72
2021/06/12 11:47:24;;;;;;;;;;;;;;;-144.31;100.00;72387.16;4937727;28;20349;-73
2021/06/12 11:49:50;;;;;;;;;;;;;;;-144.31;100.00;72243.47;4937999;28;20316;-72
2021/06/12 11:52:16;;;;;;;;;;;;;;;-144.31;100.00;72203.56;4956582;28;20139;-73
2021/06/12 11:54:43;;;;;;;;;;;;;;;-144.31;100.00;72267.41;4949991;28;20563;-73
2021/06/12 11:57:09;;;;;;;;;;;;;;;-144.31;100.00;72037.91;4938798;28;19914;-71
2021/06/12 11:59:35;;;;;;;;;;;;;;;-144.31;100.00;72019.97;4956732;28;20286;-71
2021/06/12 12:02:02;;;;;;;;;;;;;;;-144.31;100.00;72351.22;4940029;28;20607;-71
2021/06/12 12:04:41;;;;;;;;;;;;;;;-144.31;100.00;72317.31;4951135;28;19950;-71
2021/06/12 12:07:11;;;;;;;;;;;;;;;-144.31;100.00;72520.88;4935974;28;20574;-71
2021/06/12 12:09:41;;;;;;;;;;;;;;;-144.31;100.00;72554.78;4938949;28;20377;-71
2021/06/12 12:12:10;;;;;;;;;;;;;;;-144.31;100.00;72534.84;4939050;28;20607;-72
2021/06/12 12:14:38;;;;;;;;;;;;;;;-144.31;100.00;72702.50;4943850;28;19914;-71
2021/06/12 12:17:07;;;;;;;;;;;;;;;-144.31;100.00;72666.56;4938081;28;19954;-72
2021/06/12 12:19:33;;;;;;;;;;;;;;;-144.31;100.00;72223.50;4942003;28;19918;-72
2021/06/12 12:22:02;;;;;;;;;;;;;;;-144.31;100.00;72265.41;4952954;28;19949;-72